createdAt,value
2023-01-25T00:01:06.440Z,0.68
2023-01-25T00:03:07.978Z,0.70
2023-01-25T00:05:09.860Z,0.72
2023-01-25T00:07:11.485Z,0.74
2023-01-25T00:09:13.833Z,0.74
2023-01-25T00:11:17.080Z,0.73
2023-01-25T00:13:18.561Z,0.73
2023-01-25T00:15:20.026Z,0.68
2023-01-25T00:17:21.500Z,0.67
2023-01-25T00:19:23.999Z,0.66
2023-01-25T00:21:27.869Z,0.60
2023-01-25T00:23:29.324Z,0.52
2023-01-25T00:25:30.842Z,0.40
2023-01-25T00:27:32.363Z,0.37
2023-01-25T00:29:33.854Z,0.39
2023-01-25T00:31:35.378Z,0.42
2023-01-25T00:33:43.838Z,0.48
2023-01-25T00:35:45.394Z,0.52
2023-01-25T00:37:49.830Z,0.54
2023-01-25T00:39:52.255Z,0.55
2023-01-25T00:41:54.378Z,0.56
2023-01-25T00:43:56.283Z,0.56
2023-01-25T00:46:01.727Z,0.47
2023-01-25T00:48:03.441Z,0.35
2023-01-25T00:50:07.208Z,0.31
2023-01-25T00:52:09.587Z,0.35
2023-01-25T00:54:11.083Z,0.34
2023-01-25T00:56:12.534Z,0.32
2023-01-25T00:58:14.007Z,0.36
2023-01-25T01:00:15.898Z,0.42
2023-01-25T01:02:17.376Z,0.46
2023-01-25T01:04:20.258Z,0.51
2023-01-25T01:06:21.743Z,0.53
2023-01-25T01:08:23.221Z,0.53
2023-01-25T01:10:24.691Z,0.53
2023-01-25T01:12:26.213Z,0.53
2023-01-25T01:14:27.795Z,0.49
2023-01-25T01:16:29.594Z,0.49
2023-01-25T01:18:36.241Z,0.51
2023-01-25T01:20:37.721Z,0.52
2023-01-25T01:22:39.183Z,0.51
2023-01-25T01:24:40.639Z,0.50
2023-01-25T01:26:42.100Z,0.48
2023-01-25T01:28:43.634Z,0.44
2023-01-25T01:30:45.179Z,0.43
2023-01-25T01:32:46.728Z,0.42
2023-01-25T01:34:48.271Z,0.42
2023-01-25T01:36:49.831Z,0.34
2023-01-25T01:38:51.511Z,0.19
2023-01-25T01:40:52.957Z,0.08
2023-01-25T01:43:05.213Z,0.07
2023-01-25T01:45:44.210Z,0.15
2023-01-25T01:47:48.707Z,0.21
2023-01-25T01:49:54.934Z,0.26
2023-01-25T01:52:05.011Z,0.26
2023-01-25T01:54:53.832Z,0.21
2023-01-25T01:57:00.267Z,0.21
2023-01-25T01:59:04.033Z,0.22
2023-01-25T02:01:05.903Z,0.26
2023-01-25T02:03:09.545Z,0.26
2023-01-25T02:05:27.241Z,0.29
2023-01-25T02:07:36.997Z,0.31
2023-01-25T02:09:38.583Z,0.32
2023-01-25T02:11:40.703Z,0.37
2023-01-25T02:13:42.233Z,0.37
2023-01-25T02:15:47.284Z,0.34
2023-01-25T02:17:50.092Z,0.29
2023-01-25T02:19:58.430Z,0.31
2023-01-25T02:22:07.604Z,0.30
2023-01-25T02:24:20.486Z,0.30
2023-01-25T02:26:22.797Z,0.31
2023-01-25T02:28:39.229Z,0.30
2023-01-25T02:30:42.771Z,0.29
2023-01-25T02:32:44.756Z,0.22
2023-01-25T02:34:46.216Z,0.24
2023-01-25T02:36:47.692Z,0.28
2023-01-25T02:38:56.128Z,0.30
2023-01-25T02:41:11.657Z,0.35
2023-01-25T02:43:14.937Z,0.35
2023-01-25T02:45:19.507Z,0.36
2023-01-25T02:47:21.108Z,0.38
2023-01-25T02:49:22.584Z,0.39
2023-01-25T02:51:26.164Z,0.40
2023-01-25T02:53:27.639Z,0.40
2023-01-25T02:55:29.118Z,0.34
2023-01-25T02:57:30.575Z,0.32
2023-01-25T02:59:32.057Z,0.32
2023-01-25T03:01:38.006Z,0.26
2023-01-25T03:03:40.108Z,0.23
2023-01-25T03:05:41.622Z,0.23
2023-01-25T03:07:43.117Z,0.16
2023-01-25T03:09:44.606Z,0.11
2023-01-25T03:11:46.050Z,0.10
2023-01-25T03:13:47.590Z,0.07
2023-01-25T03:15:49.124Z,0.03
2023-01-25T03:17:50.666Z,0.02
2023-01-25T03:19:53.981Z,-0.01
2023-01-25T03:21:55.493Z,-0.08
2023-01-25T03:24:00.048Z,-0.08
2023-01-25T03:26:22.302Z,-0.11
2023-01-25T03:28:23.750Z,-0.14
2023-01-25T03:30:25.232Z,-0.18
2023-01-25T03:32:26.744Z,-0.16
2023-01-25T03:34:28.292Z,-0.18
2023-01-25T03:36:29.863Z,-0.16
2023-01-25T03:38:31.601Z,-0.14
2023-01-25T03:40:33.065Z,-0.20
2023-01-25T03:42:34.651Z,-0.21
2023-01-25T03:44:36.138Z,-0.19
2023-01-25T03:46:38.654Z,-0.23
2023-01-25T03:48:40.166Z,-0.27
2023-01-25T03:50:41.613Z,-0.26
2023-01-25T03:52:45.485Z,-0.27
2023-01-25T03:54:46.943Z,-0.29
2023-01-25T03:56:48.443Z,-0.37
2023-01-25T03:58:49.897Z,-0.43
2023-01-25T04:00:51.782Z,-0.44
2023-01-25T04:02:53.270Z,-0.43
2023-01-25T04:04:54.964Z,-0.46
2023-01-25T04:06:56.448Z,-0.40
2023-01-25T04:08:57.919Z,-0.36
2023-01-25T04:11:04.828Z,-0.38
2023-01-25T04:13:06.717Z,-0.43
2023-01-25T04:15:09.385Z,-0.43
2023-01-25T04:17:11.110Z,-0.40
2023-01-25T04:19:12.564Z,-0.37
2023-01-25T04:21:14.043Z,-0.35
2023-01-25T04:23:15.530Z,-0.40
2023-01-25T04:25:17.029Z,-0.43
2023-01-25T04:27:18.499Z,-0.44
2023-01-25T04:29:26.180Z,-0.38
2023-01-25T04:31:36.928Z,-0.33
2023-01-25T04:33:38.557Z,-0.28
2023-01-25T04:35:40.065Z,-0.25
2023-01-25T04:37:41.593Z,-0.21
2023-01-25T04:39:43.076Z,-0.24
2023-01-25T04:41:44.796Z,-0.25
2023-01-25T04:43:46.357Z,-0.31
2023-01-25T04:45:47.998Z,-0.36
2023-01-25T04:47:50.369Z,-0.40
2023-01-25T04:49:51.798Z,-0.35
2023-01-25T04:51:53.408Z,-0.36
2023-01-25T04:53:54.914Z,-0.42
2023-01-25T04:55:56.402Z,-0.44
2023-01-25T04:57:57.880Z,-0.48
2023-01-25T04:59:59.327Z,-0.52
2023-01-25T05:02:00.879Z,-0.57
2023-01-25T05:04:02.492Z,-0.61
2023-01-25T05:06:04.114Z,-0.63
2023-01-25T05:08:05.830Z,-0.65
2023-01-25T05:10:08.487Z,-0.66
2023-01-25T05:12:13.608Z,-0.68
2023-01-25T05:14:15.156Z,-0.69
2023-01-25T05:16:16.667Z,-0.70
2023-01-25T05:18:18.137Z,-0.74
2023-01-25T05:20:19.660Z,-0.71
2023-01-25T05:22:21.304Z,-0.73
2023-01-25T05:24:22.963Z,-0.70
2023-01-25T05:26:43.075Z,-0.63
2023-01-25T05:28:44.528Z,-0.63
2023-01-25T05:30:46.074Z,-0.63
2023-01-25T05:32:49.743Z,-0.64
2023-01-25T05:34:51.388Z,-0.63
2023-01-25T05:36:53.318Z,-0.57
2023-01-25T05:38:54.793Z,-0.58
2023-01-25T05:40:58.612Z,-0.60
2023-01-25T05:43:00.225Z,-0.59
2023-01-25T05:45:01.685Z,-0.61
2023-01-25T05:47:03.179Z,-0.63
2023-01-25T05:49:04.898Z,-0.65
2023-01-25T05:51:06.782Z,-0.66
2023-01-25T05:53:08.237Z,-0.67
2023-01-25T05:55:10.490Z,-0.67
2023-01-25T05:57:14.216Z,-0.62
2023-01-25T05:59:17.310Z,-0.59
2023-01-25T06:01:18.821Z,-0.65
2023-01-25T06:03:20.466Z,-0.68
2023-01-25T06:05:22.051Z,-0.70
2023-01-25T06:07:24.783Z,-0.70
2023-01-25T06:09:27.081Z,-0.72
2023-01-25T06:11:28.719Z,-0.71
2023-01-25T06:13:30.201Z,-0.67
2023-01-25T06:15:31.701Z,-0.69
2023-01-25T06:17:33.207Z,-0.69
2023-01-25T06:19:34.679Z,-0.65
2023-01-25T06:21:38.936Z,-0.59
2023-01-25T06:23:40.678Z,-0.61
2023-01-25T06:25:42.423Z,-0.58
2023-01-25T06:27:44.042Z,-0.63
2023-01-25T06:29:45.573Z,-0.54
2023-01-25T06:31:47.010Z,-0.61
2023-01-25T06:33:52.661Z,-0.65
2023-01-25T06:35:54.109Z,-0.69
2023-01-25T06:37:56.758Z,-0.78
2023-01-25T06:39:58.261Z,-0.76
2023-01-25T06:41:59.721Z,-0.77
2023-01-25T06:44:01.406Z,-0.74
2023-01-25T06:46:08.430Z,-0.74
2023-01-25T06:48:11.629Z,-0.81
2023-01-25T06:50:14.905Z,-0.73
2023-01-25T06:52:16.454Z,-0.71
2023-01-25T06:54:17.889Z,-0.77
2023-01-25T06:56:22.118Z,-0.77
2023-01-25T06:58:23.597Z,-0.76
2023-01-25T07:00:25.248Z,-0.74
2023-01-25T07:02:27.088Z,-0.79
2023-01-25T07:04:28.591Z,-0.82
2023-01-25T07:06:34.120Z,-0.86
2023-01-25T07:08:36.791Z,-0.87
2023-01-25T07:10:38.325Z,-0.87
2023-01-25T07:12:39.790Z,-0.84
2023-01-25T07:14:41.262Z,-0.78
2023-01-25T07:16:42.703Z,-0.79
2023-01-25T07:18:44.496Z,-0.79
2023-01-25T07:20:46.010Z,-0.82
2023-01-25T07:22:47.458Z,-0.85
2023-01-25T07:24:52.165Z,-0.88
2023-01-25T07:26:53.706Z,-0.84
2023-01-25T07:28:56.933Z,-0.81
2023-01-25T07:31:08.276Z,-0.84
2023-01-25T07:33:10.975Z,-0.87
2023-01-25T07:35:12.406Z,-0.86
2023-01-25T07:37:13.908Z,-0.84
2023-01-25T07:39:15.472Z,-0.83
2023-01-25T07:41:17.148Z,-0.81
2023-01-25T07:43:19.761Z,-0.75
2023-01-25T07:45:21.639Z,-0.68
2023-01-25T07:47:23.186Z,-0.67
2023-01-25T07:49:24.755Z,-0.67
2023-01-25T07:51:30.825Z,-0.65
2023-01-25T07:53:32.265Z,-0.62
2023-01-25T07:55:34.347Z,-0.54
2023-01-25T07:57:35.792Z,-0.50
2023-01-25T07:59:37.224Z,-0.47
2023-01-25T08:01:39.520Z,-0.50
2023-01-25T08:03:41.501Z,-0.56
2023-01-25T08:05:46.077Z,-0.64
2023-01-25T08:07:48.335Z,-0.70
2023-01-25T08:09:49.831Z,-0.76
2023-01-25T08:11:53.460Z,-0.77
2023-01-25T08:13:55.845Z,-0.80
2023-01-25T08:15:57.365Z,-0.79
2023-01-25T08:18:02.376Z,-0.79
2023-01-25T08:20:04.975Z,-0.82
2023-01-25T08:22:08.141Z,-0.83
2023-01-25T08:24:09.858Z,-0.83
2023-01-25T08:26:13.917Z,-0.85
2023-01-25T08:28:15.419Z,-0.89
2023-01-25T08:30:17.341Z,-0.86
2023-01-25T08:32:18.776Z,-0.82
2023-01-25T08:34:20.606Z,-0.81
2023-01-25T08:36:24.343Z,-0.82
2023-01-25T08:38:25.888Z,-0.85
2023-01-25T08:40:27.326Z,-0.87
2023-01-25T08:42:28.883Z,-0.90
2023-01-25T08:44:30.311Z,-0.87
2023-01-25T08:46:33.927Z,-0.86
2023-01-25T08:48:35.783Z,-0.86
2023-01-25T08:50:37.216Z,-0.81
2023-01-25T08:52:38.815Z,-0.83
2023-01-25T08:54:43.986Z,-0.82
2023-01-25T08:56:45.510Z,-0.82
2023-01-25T08:58:48.817Z,-0.81
2023-01-25T09:00:50.328Z,-0.83
2023-01-25T09:02:51.826Z,-0.79
2023-01-25T09:04:53.296Z,-0.81
2023-01-25T09:06:55.959Z,-0.82
2023-01-25T09:08:59.299Z,-0.82
2023-01-25T09:11:02.463Z,-0.83
2023-01-25T09:13:03.961Z,-0.86
2023-01-25T09:15:05.897Z,-0.83
2023-01-25T09:17:07.352Z,-0.82
2023-01-25T09:19:09.867Z,-0.80
2023-01-25T09:21:17.319Z,-0.82
2023-01-25T09:23:22.753Z,-0.87
2023-01-25T09:25:26.596Z,-0.84
2023-01-25T09:27:28.033Z,-0.76
2023-01-25T09:29:29.506Z,-0.77
2023-01-25T09:31:31.247Z,-0.78
2023-01-25T09:33:35.321Z,-0.76
2023-01-25T09:35:37.342Z,-0.76
2023-01-25T09:37:40.213Z,-0.77
2023-01-25T09:39:41.681Z,-0.81
2023-01-25T09:42:21.535Z,-0.80
2023-01-25T09:44:23.052Z,-0.80
2023-01-25T09:46:40.917Z,-0.82
2023-01-25T09:49:06.796Z,-0.82
2023-01-25T09:51:26.904Z,-0.95
2023-01-25T09:53:34.568Z,-0.96
2023-01-25T09:55:36.657Z,-0.97
2023-01-25T09:57:39.806Z,-0.98
2023-01-25T09:59:42.052Z,-0.96
2023-01-25T10:02:02.939Z,-0.93
2023-01-25T10:04:13.067Z,-0.97
2023-01-25T10:06:16.937Z,-0.95
2023-01-25T10:08:31.488Z,-0.95
2023-01-25T10:10:37.252Z,-0.93
2023-01-25T10:12:39.492Z,-0.95
2023-01-25T10:14:41.012Z,-1.00
2023-01-25T10:16:48.211Z,-0.99
2023-01-25T10:19:15.997Z,-1.01
2023-01-25T10:21:24.680Z,-1.03
2023-01-25T10:23:44.365Z,-1.00
2023-01-25T10:25:51.690Z,-1.01
2023-01-25T10:28:08.972Z,-1.00
2023-01-25T10:30:36.123Z,-0.98
2023-01-25T10:32:47.608Z,-0.97
2023-01-25T10:34:57.587Z,-0.95
2023-01-25T10:37:14.363Z,-0.93
2023-01-25T10:39:18.288Z,-0.95
2023-01-25T10:41:27.198Z,-0.96
2023-01-25T10:43:28.931Z,-1.01
2023-01-25T10:45:30.454Z,-1.04
2023-01-25T10:47:35.473Z,-1.00
2023-01-25T10:49:52.711Z,-1.00
2023-01-25T10:51:54.437Z,-0.96
2023-01-25T10:54:01.840Z,-0.96
2023-01-25T10:56:19.325Z,-1.00
2023-01-25T10:58:41.810Z,-0.97
2023-01-25T11:00:43.295Z,-0.95
2023-01-25T11:02:47.426Z,-0.98
2023-01-25T11:04:48.980Z,-1.01
2023-01-25T11:06:51.523Z,-1.00
2023-01-25T11:08:53.085Z,-1.03
2023-01-25T11:10:55.363Z,-1.05
2023-01-25T11:13:15.068Z,-1.06
2023-01-25T11:15:25.854Z,-1.09
2023-01-25T11:17:31.859Z,-1.08
2023-01-25T11:19:39.047Z,-1.09
2023-01-25T11:21:52.964Z,-1.08
2023-01-25T11:23:58.877Z,-1.09
2023-01-25T11:26:26.726Z,-1.07
2023-01-25T11:28:28.206Z,-1.10
2023-01-25T11:30:29.871Z,-1.11
2023-01-25T11:32:31.878Z,-1.13
2023-01-25T11:34:33.391Z,-1.15
2023-01-25T11:36:43.860Z,-1.12
2023-01-25T11:39:00.365Z,-1.10
2023-01-25T11:41:10.884Z,-1.09
2023-01-25T11:43:39.703Z,-1.08
2023-01-25T11:45:49.985Z,-1.09
2023-01-25T11:48:25.415Z,-1.11
2023-01-25T11:50:34.018Z,-1.10
2023-01-25T11:52:41.667Z,-1.13
2023-01-25T11:54:46.593Z,-1.15
2023-01-25T11:56:59.592Z,-1.14
2023-01-25T11:59:09.736Z,-1.18
2023-01-25T12:01:13.814Z,-1.13
2023-01-25T12:03:56.949Z,-1.18
2023-01-25T12:06:13.554Z,-1.23
2023-01-25T12:08:44.391Z,-1.28
2023-01-25T12:11:00.168Z,-1.27
2023-01-25T12:13:27.005Z,-1.25
2023-01-25T12:15:50.291Z,-1.22
2023-01-25T12:18:16.721Z,-1.14
2023-01-25T12:20:43.066Z,-1.09
2023-01-25T12:23:22.073Z,-1.07
2023-01-25T12:25:40.976Z,-1.06
2023-01-25T12:27:45.164Z,-1.08
2023-01-25T12:30:30.096Z,-1.14
2023-01-25T12:32:39.767Z,-1.18
2023-01-25T12:34:47.588Z,-1.23
2023-01-25T12:36:50.210Z,-1.23
2023-01-25T12:39:03.710Z,-1.25
2023-01-25T12:41:26.744Z,-1.24
2023-01-25T12:43:47.807Z,-1.31
2023-01-25T12:45:51.541Z,-1.32
2023-01-25T12:48:00.322Z,-1.25
2023-01-25T12:50:02.430Z,-1.28
2023-01-25T12:52:33.447Z,-1.33
2023-01-25T12:54:41.064Z,-1.36
2023-01-25T12:56:54.123Z,-1.36
2023-01-25T12:59:16.923Z,-1.36
2023-01-25T13:01:35.747Z,-1.35
2023-01-25T13:03:43.128Z,-1.33
2023-01-25T13:05:51.896Z,-1.33
2023-01-25T13:08:02.224Z,-1.30
2023-01-25T13:10:03.883Z,-1.32
2023-01-25T13:12:05.690Z,-1.35
2023-01-25T13:14:16.384Z,-1.38
2023-01-25T13:16:30.038Z,-1.40
2023-01-25T13:18:36.850Z,-1.37
2023-01-25T13:20:41.475Z,-1.36
2023-01-25T13:22:43.019Z,-1.36
2023-01-25T13:25:02.952Z,-1.39
2023-01-25T13:27:43.091Z,-1.39
2023-01-25T13:29:49.146Z,-1.36
2023-01-25T13:31:53.614Z,-1.26
2023-01-25T13:33:55.255Z,-1.23
2023-01-25T13:35:56.709Z,-1.22
2023-01-25T13:38:02.893Z,-1.26
2023-01-25T13:40:25.756Z,-1.26
2023-01-25T13:42:32.228Z,-1.28
2023-01-25T13:44:38.471Z,-1.28
2023-01-25T13:46:40.000Z,-1.31
2023-01-25T13:48:55.576Z,-1.30
2023-01-25T13:51:04.487Z,-1.26
2023-01-25T13:53:14.834Z,-1.16
2023-01-25T13:55:19.577Z,-1.10
2023-01-25T13:57:27.149Z,-1.09
2023-01-25T13:59:28.977Z,-1.14
2023-01-25T14:01:33.798Z,-1.19
2023-01-25T14:03:35.217Z,-1.19
2023-01-25T14:05:36.687Z,-1.22
2023-01-25T14:07:38.258Z,-1.22
2023-01-25T14:09:43.139Z,-1.23
2023-01-25T14:11:54.667Z,-1.27
2023-01-25T14:13:57.171Z,-1.29
2023-01-25T14:16:00.755Z,-1.27
2023-01-25T14:18:14.204Z,-1.18
2023-01-25T14:20:20.296Z,-1.15
2023-01-25T14:22:33.924Z,-1.15
2023-01-25T14:24:35.403Z,-1.14
2023-01-25T14:26:38.919Z,-1.17
2023-01-25T14:28:51.281Z,-1.25
2023-01-25T14:31:20.269Z,-1.30
2023-01-25T14:33:26.272Z,-1.31
2023-01-25T14:35:43.302Z,-1.27
2023-01-25T14:37:51.303Z,-1.28
2023-01-25T14:39:53.115Z,-1.27
2023-01-25T14:42:01.378Z,-1.25
2023-01-25T14:44:11.463Z,-1.19
2023-01-25T14:46:29.709Z,-1.18
2023-01-25T14:48:40.408Z,-1.24
2023-01-25T14:50:41.988Z,-1.29
2023-01-25T14:52:43.496Z,-1.31
2023-01-25T14:54:52.197Z,-1.30
2023-01-25T14:56:57.586Z,-1.30
2023-01-25T14:59:00.276Z,-1.26
2023-01-25T15:01:03.236Z,-1.29
2023-01-25T15:03:06.614Z,-1.29
2023-01-25T15:05:20.220Z,-1.25
2023-01-25T15:07:54.239Z,-1.22
2023-01-25T15:10:31.592Z,-1.22
2023-01-25T15:12:33.127Z,-1.22
2023-01-25T15:14:47.991Z,-1.28
2023-01-25T15:16:58.918Z,-1.33
2023-01-25T15:19:00.494Z,-1.34
2023-01-25T15:21:01.969Z,-1.34
2023-01-25T15:23:23.032Z,-1.35
2023-01-25T15:25:24.685Z,-1.28
2023-01-25T15:27:26.255Z,-1.23
2023-01-25T15:29:27.809Z,-1.29
2023-01-25T15:31:34.770Z,-1.32
2023-01-25T15:33:36.364Z,-1.34
2023-01-25T15:35:37.828Z,-1.38
2023-01-25T15:37:39.430Z,-1.42
2023-01-25T15:39:40.889Z,-1.45
2023-01-25T15:41:42.777Z,-1.46
2023-01-25T15:43:45.085Z,-1.49
2023-01-25T15:45:49.428Z,-1.46
2023-01-25T15:47:50.913Z,-1.46
2023-01-25T15:49:53.782Z,-1.50
2023-01-25T15:51:56.120Z,-1.52
2023-01-25T15:53:57.579Z,-1.57
2023-01-25T15:56:03.294Z,-1.63
2023-01-25T15:58:05.158Z,-1.67
2023-01-25T16:00:14.401Z,-1.63
2023-01-25T16:02:15.881Z,-1.62
2023-01-25T16:04:17.643Z,-1.64
2023-01-25T16:06:28.721Z,-1.67
2023-01-25T16:08:30.333Z,-1.67
2023-01-25T16:10:33.322Z,-1.67
2023-01-25T16:12:36.420Z,-1.64
2023-01-25T16:14:37.910Z,-1.65
2023-01-25T16:16:44.624Z,-1.65
2023-01-25T16:18:46.767Z,-1.64
2023-01-25T16:20:49.187Z,-1.64
2023-01-25T16:22:50.755Z,-1.66
2023-01-25T16:24:52.362Z,-1.67
2023-01-25T16:26:56.201Z,-1.65
2023-01-25T16:28:57.683Z,-1.67
2023-01-25T16:30:59.469Z,-1.65
2023-01-25T16:33:01.508Z,-1.66
2023-01-25T16:35:03.045Z,-1.64
2023-01-25T16:37:05.111Z,-1.65
2023-01-25T16:39:19.887Z,-1.65
2023-01-25T16:41:21.463Z,-1.62
2023-01-25T16:43:25.182Z,-1.60
2023-01-25T16:45:28.531Z,-1.64
2023-01-25T16:47:30.007Z,-1.66
2023-01-25T16:49:32.250Z,-1.70
2023-01-25T16:51:33.790Z,-1.69
2023-01-25T16:53:35.430Z,-1.72
2023-01-25T16:55:37.346Z,-1.71
2023-01-25T16:57:40.850Z,-1.71
2023-01-25T16:59:42.300Z,-1.69
2023-01-25T17:01:44.641Z,-1.70
2023-01-25T17:03:47.312Z,-1.70
2023-01-25T17:05:48.768Z,-1.68
2023-01-25T17:07:51.437Z,-1.67
2023-01-25T17:09:52.944Z,-1.65
2023-01-25T17:11:54.671Z,-1.67
2023-01-25T17:13:58.710Z,-1.63
2023-01-25T17:16:01.046Z,-1.61
2023-01-25T17:18:02.583Z,-1.63
2023-01-25T17:20:04.910Z,-1.64
2023-01-25T17:22:06.587Z,-1.68
2023-01-25T17:24:08.460Z,-1.72
2023-01-25T17:26:12.964Z,-1.70
2023-01-25T17:28:14.490Z,-1.72
2023-01-25T17:30:16.163Z,-1.78
2023-01-25T17:32:17.761Z,-1.78
2023-01-25T17:34:19.865Z,-1.73
2023-01-25T17:36:22.073Z,-1.72
2023-01-25T17:38:24.947Z,-1.71
2023-01-25T17:40:26.492Z,-1.74
2023-01-25T17:42:27.944Z,-1.74
2023-01-25T17:44:29.726Z,-1.71
2023-01-25T17:46:35.086Z,-1.72
2023-01-25T17:48:36.606Z,-1.68
2023-01-25T17:50:39.009Z,-1.67
2023-01-25T17:52:40.552Z,-1.63
2023-01-25T17:54:42.014Z,-1.58
2023-01-25T17:56:43.524Z,-1.55
2023-01-25T17:58:45.351Z,-1.57
2023-01-25T18:00:46.931Z,-1.59
2023-01-25T18:02:48.565Z,-1.62
2023-01-25T18:04:50.124Z,-1.64
2023-01-25T18:06:57.810Z,-1.70
2023-01-25T18:09:01.702Z,-1.68
2023-01-25T18:11:06.227Z,-1.68
2023-01-25T18:13:07.771Z,-1.68
2023-01-25T18:15:10.062Z,-1.70
2023-01-25T18:17:12.508Z,-1.69
2023-01-25T18:19:14.071Z,-1.68
2023-01-25T18:21:22.126Z,-1.66
2023-01-25T18:23:23.631Z,-1.68
2023-01-25T18:25:34.649Z,-1.68
2023-01-25T18:27:36.260Z,-1.68
2023-01-25T18:29:56.005Z,-1.66
2023-01-25T18:31:57.710Z,-1.67
2023-01-25T18:33:59.473Z,-1.68
2023-01-25T18:36:03.810Z,-1.66
2023-01-25T18:38:05.411Z,-1.65
2023-01-25T18:40:07.713Z,-1.66
2023-01-25T18:42:09.240Z,-1.70
2023-01-25T18:44:11.343Z,-1.72
2023-01-25T18:46:13.088Z,-1.69
2023-01-25T18:48:16.595Z,-1.65
2023-01-25T18:50:18.996Z,-1.61
2023-01-25T18:52:22.710Z,-1.61
2023-01-25T18:54:24.264Z,-1.59
2023-01-25T18:56:27.310Z,-1.58
2023-01-25T18:58:33.197Z,-1.59
2023-01-25T19:00:35.438Z,-1.61
2023-01-25T19:02:37.991Z,-1.61
2023-01-25T19:04:40.620Z,-1.63
2023-01-25T19:06:42.102Z,-1.63
2023-01-25T19:08:46.474Z,-1.62
2023-01-25T19:10:47.974Z,-1.64
2023-01-25T19:12:49.536Z,-1.64
2023-01-25T19:14:51.347Z,-1.65
2023-01-25T19:16:52.926Z,-1.67
2023-01-25T19:18:55.194Z,-1.69
2023-01-25T19:20:56.649Z,-1.70
2023-01-25T19:22:58.111Z,-1.70
2023-01-25T19:24:59.612Z,-1.69
2023-01-25T19:27:01.432Z,-1.71
2023-01-25T19:29:03.017Z,-1.71
2023-01-25T19:31:24.777Z,-1.70
2023-01-25T19:33:26.348Z,-1.73
2023-01-25T19:35:27.873Z,-1.77
2023-01-25T19:37:29.349Z,-1.77
2023-01-25T19:39:30.846Z,-1.80
2023-01-25T19:41:33.414Z,-1.80
2023-01-25T19:43:35.502Z,-1.80
2023-01-25T19:45:36.968Z,-1.78
2023-01-25T19:47:38.439Z,-1.75
2023-01-25T19:49:39.903Z,-1.77
2023-01-25T19:51:45.534Z,-1.77
2023-01-25T19:53:53.000Z,-1.76
2023-01-25T19:55:54.473Z,-1.71
2023-01-25T19:57:56.031Z,-1.71
2023-01-25T19:59:57.495Z,-1.72
2023-01-25T20:01:59.084Z,-1.73
2023-01-25T20:04:02.227Z,-1.75
2023-01-25T20:06:06.940Z,-1.76
2023-01-25T20:08:08.580Z,-1.71
2023-01-25T20:10:11.061Z,-1.70
2023-01-25T20:12:12.587Z,-1.72
2023-01-25T20:14:14.436Z,-1.76
2023-01-25T20:16:17.235Z,-1.73
2023-01-25T20:18:19.005Z,-1.74
2023-01-25T20:20:20.486Z,-1.73
2023-01-25T20:22:22.034Z,-1.74
2023-01-25T20:24:23.697Z,-1.74
2023-01-25T20:26:32.430Z,-1.78
2023-01-25T20:28:36.058Z,-1.80
2023-01-25T20:30:37.680Z,-1.81
2023-01-25T20:32:39.232Z,-1.79
2023-01-25T20:34:41.587Z,-1.78
2023-01-25T20:36:43.365Z,-1.73
2023-01-25T20:38:45.532Z,-1.74
2023-01-25T20:40:47.065Z,-1.76
2023-01-25T20:42:48.525Z,-1.75
2023-01-25T20:44:49.973Z,-1.76
2023-01-25T20:46:52.120Z,-1.78
2023-01-25T20:48:54.115Z,-1.79
2023-01-25T20:51:05.697Z,-1.76
2023-01-25T20:53:07.148Z,-1.70
2023-01-25T20:55:09.782Z,-1.67
2023-01-25T20:57:11.437Z,-1.70
2023-01-25T20:59:12.960Z,-1.67
2023-01-25T21:01:16.047Z,-1.68
2023-01-25T21:03:17.695Z,-1.71
2023-01-25T21:05:19.221Z,-1.71
2023-01-25T21:07:20.754Z,-1.72
2023-01-25T21:09:23.262Z,-1.72
2023-01-25T21:11:25.911Z,-1.71
2023-01-25T21:13:28.604Z,-1.70
2023-01-25T21:15:30.047Z,-1.70
2023-01-25T21:17:31.548Z,-1.69
2023-01-25T21:19:33.070Z,-1.67
2023-01-25T21:21:34.874Z,-1.68
2023-01-25T21:23:38.986Z,-1.71
2023-01-25T21:25:40.456Z,-1.73
2023-01-25T21:27:41.921Z,-1.69
2023-01-25T21:29:43.377Z,-1.68
2023-01-25T21:31:44.881Z,-1.66
2023-01-25T21:33:47.597Z,-1.66
2023-01-25T21:35:54.284Z,-1.67
2023-01-25T21:37:55.892Z,-1.69
2023-01-25T21:39:57.376Z,-1.69
2023-01-25T21:41:58.829Z,-1.71
2023-01-25T21:44:19.765Z,-1.72
2023-01-25T21:46:26.010Z,-1.70
2023-01-25T21:48:46.112Z,-1.72
2023-01-25T21:51:06.032Z,-1.72
2023-01-25T21:53:09.112Z,-1.72
2023-01-25T21:55:10.735Z,-1.71
2023-01-25T21:57:12.243Z,-1.70
2023-01-25T21:59:15.345Z,-1.71
2023-01-25T22:01:20.020Z,-1.69
2023-01-25T22:03:21.507Z,-1.69
2023-01-25T22:05:22.973Z,-1.71
2023-01-25T22:07:24.483Z,-1.65
2023-01-25T22:09:25.949Z,-1.61
2023-01-25T22:11:27.873Z,-1.59
2023-01-25T22:13:31.069Z,-1.62
2023-01-25T22:15:33.796Z,-1.60
2023-01-25T22:17:35.343Z,-1.59
2023-01-25T22:19:36.785Z,-1.63
2023-01-25T22:21:38.257Z,-1.66
2023-01-25T22:23:39.766Z,-1.63
2023-01-25T22:25:41.332Z,-1.63
2023-01-25T22:27:59.937Z,-1.65
2023-01-25T22:30:01.345Z,-1.68
2023-01-25T22:32:02.875Z,-1.67
2023-01-25T22:34:04.710Z,-1.66
2023-01-25T22:36:06.699Z,-1.65
2023-01-25T22:38:08.151Z,-1.68
2023-01-25T22:40:10.468Z,-1.66
2023-01-25T22:42:12.057Z,-1.67
2023-01-25T22:44:14.690Z,-1.68
2023-01-25T22:46:21.246Z,-1.68
2023-01-25T22:48:22.777Z,-1.67
2023-01-25T22:50:24.231Z,-1.63
2023-01-25T22:52:25.788Z,-1.65
2023-01-25T22:54:27.250Z,-1.66
2023-01-25T22:56:34.136Z,-1.69
2023-01-25T22:58:37.034Z,-1.69
2023-01-25T23:00:38.592Z,-1.69
2023-01-25T23:02:40.037Z,-1.71
2023-01-25T23:04:41.602Z,-1.71
2023-01-25T23:06:43.139Z,-1.69
2023-01-25T23:08:44.954Z,-1.65
2023-01-25T23:10:46.512Z,-1.60
2023-01-25T23:12:48.155Z,-1.61
2023-01-25T23:14:55.166Z,-1.61
2023-01-25T23:17:17.115Z,-1.64
2023-01-25T23:19:18.728Z,-1.65
2023-01-25T23:21:22.355Z,-1.64
2023-01-25T23:23:23.882Z,-1.64
2023-01-25T23:25:25.440Z,-1.62
2023-01-25T23:27:27.084Z,-1.58
2023-01-25T23:29:28.576Z,-1.59
2023-01-25T23:31:30.818Z,-1.61
2023-01-25T23:33:32.341Z,-1.62
2023-01-25T23:35:33.802Z,-1.63
2023-01-25T23:37:35.259Z,-1.61
2023-01-25T23:39:37.064Z,-1.60
2023-01-25T23:41:38.575Z,-1.61
2023-01-25T23:43:40.341Z,-1.58
2023-01-25T23:45:43.832Z,-1.59
2023-01-25T23:47:45.273Z,-1.61
2023-01-25T23:49:46.736Z,-1.60
2023-01-25T23:51:48.217Z,-1.58
2023-01-25T23:53:49.682Z,-1.58
2023-01-25T23:55:58.677Z,-1.54
2023-01-25T23:58:00.160Z,-1.55
